This is the latest recevied weather packets stored in our database for station/object CA2JAT-13. If no packets are shown the sender has not sent any weather packets the latest 10 day(s).
| Time | Temp. | Humidity | Pressure | Rain* | Wind** | Luminosity | Snow |
|---|---|---|---|---|---|---|---|
| 1777928662 | 25° C | 22% | 1010.8 hPa | 0 mm | - | 243 W/m² | - |
| 1777926860 | 26.67° C | 20% | 1010.1 hPa | 0 mm | - | 341 W/m² | - |
| 1777925057 | 27.22° C | 19% | 1009.8 hPa | 0 mm | - | 387 W/m² | - |
| 1777923255 | 27.78° C | 18% | 1010 hPa | 0 mm | - | 516 W/m² | - |
| 1777919650 | 27.78° C | 17% | 1010.8 hPa | 0 mm | - | 635 W/m² | - |
| 1777918200 | 27.78° C | 16% | 1011.4 hPa | 0 mm | - | 665 W/m² | - |
| 1777916395 | 27.78° C | 15% | 1011.7 hPa | 0 mm | - | 675 W/m² | - |
| 1777914592 | 27.22° C | 14% | 1012.4 hPa | 0 mm | - | 675 W/m² | - |
| 1777912790 | 26.11° C | 14% | 1013 hPa | 0 mm | - | 658 W/m² | - |
| 1777910988 | 24.44° C | 14% | 1014.1 hPa | 0 mm | - | 643 W/m² | - |
| 1777909185 | 22.78° C | 18% | 1014.9 hPa | 0 mm | - | 550 W/m² | - |
| 1777907383 | 21.67° C | 19% | 1015.2 hPa | 0 mm | - | 563 W/m² | - |
| 1777905581 | 20° C | 19% | 1016 hPa | 0 mm | - | 456 W/m² | - |
| 1777903778 | 18.33° C | 28% | 1016.7 hPa | 0 mm | - | 378 W/m² | - |
| 1777901714 | 13.33° C | 29% | 1018.2 hPa | 0 mm | - | 294 W/m² | - |
| 1777899880 | 10° C | 45% | 1018.9 hPa | 0 mm | - | 194 W/m² | - |
| 1777898078 | 10° C | 43% | 1019 hPa | 0 mm | - | 141 W/m² | - |
| 1777896275 | 6.11° C | 58% | 1019.8 hPa | 0 mm | - | 7 W/m² | - |
| 1777894473 | 6.11° C | 60% | 1019.9 hPa | 0 mm | - | 0 W/m² | - |
| 1777892669 | 6.67° C | 60% | 1019.4 hPa | 0 mm | - | 0 W/m² | - |
| 1777890866 | 7.22° C | 61% | 1019.2 hPa | 0 mm | - | 0 W/m² | - |
| 1777889063 | 6.67° C | 63% | 1019 hPa | 0 mm | - | 0 W/m² | - |
| 1777887260 | 7.78° C | 61% | 1018.6 hPa | 0 mm | - | 0 W/m² | - |
| 1777885458 | 7.22° C | 67% | 1019 hPa | 0 mm | - | 0 W/m² | - |
| 1777883656 | 7.22° C | 67% | 1018.8 hPa | 0 mm | - | 0 W/m² | - |
* Rain latest hour (hover to see other rain measurements)
** Current wind speed in m/s (hover to see current wind gust speed)